Time;durP1;ratioP1;P1;durP2;ratioP2;P2;SDS_P1;SDS_P2;PMS_P1;PMS_P2;Temp;Humidity;BMP_temperature;BMP_pressure;BME280_temperature;BME280_humidity;BME280_pressure;Samples;Min_cycle;Max_cycle;Signal;HPM_P1;HPM_P2
2021/05/27 00:02:17;;;;;;;4.30;4.00;;;11.20;1.00;;;;;;5014745;28;20449;-79
2021/05/27 00:04:43;;;;;;;3.60;3.30;;;11.20;1.00;;;;;;4994071;28;21070;-78
2021/05/27 00:07:09;;;;;;;3.83;3.30;;;11.20;1.00;;;;;;5010549;28;20414;-78
2021/05/27 00:09:35;;;;;;;4.07;3.77;;;11.20;1.00;;;;;;5013287;28;21572;-78
2021/05/27 00:12:02;;;;;;;4.10;3.80;;;11.10;1.00;;;;;;5007548;28;20458;-78
2021/05/27 00:14:29;;;;;;;3.50;3.20;;;11.10;1.00;;;;;;5014334;28;20472;-81
2021/05/27 00:16:55;;;;;;;4.13;3.83;;;11.10;1.00;;;;;;5012850;28;20445;-78
2021/05/27 00:19:34;;;;;;;3.90;3.60;;;11.10;1.00;;;;;;5013504;28;20472;-78
2021/05/27 00:22:00;;;;;;;3.67;3.37;;;11.10;1.00;;;;;;5015513;28;21350;-78
2021/05/27 00:24:26;;;;;;;4.30;3.90;;;11.10;1.00;;;;;;5001624;28;20536;-78
2021/05/27 00:26:53;;;;;;;4.10;3.80;;;11.10;1.00;;;;;;5019759;28;20452;-78
2021/05/27 00:29:19;;;;;;;3.37;3.07;;;11.00;1.00;;;;;;5002471;28;21005;-79
2021/05/27 00:31:46;;;;;;;5.55;3.65;;;11.00;1.00;;;;;;5020353;28;21174;-78
2021/05/27 00:34:12;;;;;;;4.10;3.80;;;11.00;1.00;;;;;;5018572;28;20229;-79
2021/05/27 00:36:38;;;;;;;4.50;3.53;;;11.00;1.00;;;;;;5014241;28;20519;-79
2021/05/27 00:39:05;;;;;;;5.30;3.83;;;10.90;1.00;;;;;;5017945;28;20562;-79
2021/05/27 00:41:32;;;;;;;4.03;3.73;;;10.90;1.00;;;;;;5020949;28;20274;-77
2021/05/27 00:43:58;;;;;;;5.40;3.53;;;10.90;1.00;;;;;;5022419;28;20460;-78
2021/05/27 00:46:25;;;;;;;4.10;3.80;;;10.90;1.00;;;;;;5007420;28;20418;-78
2021/05/27 00:48:59;;;;;;;4.18;3.88;;;10.90;1.00;;;;;;5024399;28;20436;-77
2021/05/27 00:51:26;;;;;;;3.65;3.45;;;10.80;1.00;;;;;;5032936;28;20226;-78
2021/05/27 00:53:53;;;;;;;6.10;4.07;;;10.80;1.00;;;;;;5030211;28;20226;-78
2021/05/27 00:56:20;;;;;;;4.90;4.07;;;10.70;1.00;;;;;;5025649;28;20228;-80
2021/05/27 00:58:47;;;;;;;4.05;3.65;;;10.70;1.00;;;;;;5024179;28;20443;-78
2021/05/27 01:01:14;;;;;;;4.28;3.97;;;10.70;1.00;;;;;;5028608;28;20315;-78
2021/05/27 01:03:40;;;;;;;5.03;4.60;;;10.60;1.00;;;;;;5025441;28;20786;-78
2021/05/27 01:06:07;;;;;;;4.33;3.97;;;10.60;1.00;;;;;;5029719;28;21095;-79
2021/05/27 01:08:34;;;;;;;4.70;4.30;;;10.50;1.00;;;;;;5005583;28;20433;-80
2021/05/27 01:11:01;;;;;;;4.13;3.83;;;10.50;1.00;;;;;;5008880;28;20250;-78
2021/05/27 01:13:27;;;;;;;4.30;4.00;;;10.40;1.00;;;;;;5022717;28;20239;-78
2021/05/27 01:15:53;;;;;;;4.68;4.05;;;10.30;1.00;;;;;;5035136;28;20270;-80
2021/05/27 01:18:21;;;;;;;4.17;3.77;;;10.30;1.00;;;;;;5034528;28;20234;-78
2021/05/27 01:20:50;;;;;;;4.18;3.88;;;10.20;1.00;;;;;;5031005;28;21260;-79
2021/05/27 01:23:18;;;;;;;4.22;3.92;;;10.20;1.00;;;;;;5035378;28;20227;-78
2021/05/27 01:25:47;;;;;;;4.43;4.03;;;10.20;1.00;;;;;;5013767;28;20258;-79
2021/05/27 01:28:15;;;;;;;4.95;4.40;;;10.10;1.00;;;;;;5036683;28;20373;-80
2021/05/27 01:30:42;;;;;;;4.90;4.03;;;10.10;1.00;;;;;;5034334;28;20289;-80
2021/05/27 01:33:09;;;;;;;5.25;4.80;;;10.00;1.00;;;;;;5032830;28;20239;-79
2021/05/27 01:35:36;;;;;;;5.70;5.20;;;10.00;1.00;;;;;;5030849;28;20276;-79
2021/05/27 01:38:11;;;;;;;5.15;4.75;;;10.00;1.00;;;;;;5027384;28;20328;-80
2021/05/27 01:40:38;;;;;;;6.47;5.07;;;9.90;1.00;;;;;;5024342;28;20273;-78
2021/05/27 01:43:05;;;;;;;5.22;4.82;;;9.90;1.00;;;;;;5020724;28;20286;-78
2021/05/27 01:45:31;;;;;;;5.50;5.10;;;9.90;1.00;;;;;;5021481;28;20212;-78
2021/05/27 01:47:58;;;;;;;5.70;5.30;;;9.80;1.00;;;;;;5027255;28;20253;-78
2021/05/27 01:50:24;;;;;;;6.20;5.70;;;9.80;1.00;;;;;;5031132;28;20250;-78
2021/05/27 01:52:51;;;;;;;5.90;5.35;;;9.80;1.00;;;;;;5033519;28;20238;-78
2021/05/27 01:55:18;;;;;;;6.60;6.10;;;9.80;1.00;;;;;;5030867;28;20206;-80
2021/05/27 01:57:45;;;;;;;5.55;5.13;;;9.80;1.00;;;;;;4999966;28;20228;-80
2021/05/27 02:00:13;;;;;;;7.47;6.30;;;9.80;1.00;;;;;;5013944;28;20416;-79
2021/05/27 02:02:39;;;;;;;6.72;6.18;;;9.80;1.00;;;;;;5018240;28;21806;-79
2021/05/27 02:05:06;;;;;;;7.38;5.88;;;9.80;1.00;;;;;;5014175;28;21390;-79
2021/05/27 02:07:32;;;;;;;6.22;5.68;;;9.80;1.00;;;;;;4995179;28;20227;-78
2021/05/27 02:09:58;;;;;;;7.43;6.82;;;9.80;1.00;;;;;;5017794;28;20237;-78
2021/05/27 02:12:25;;;;;;;6.55;5.97;;;9.70;1.00;;;;;;5014408;28;20349;-79
2021/05/27 02:14:52;;;;;;;7.57;6.97;;;9.70;1.00;;;;;;5017129;28;20237;-78
2021/05/27 02:17:18;;;;;;;8.55;7.50;;;9.70;1.00;;;;;;5015982;28;20224;-78
2021/05/27 02:19:45;;;;;;;7.40;6.80;;;9.70;1.00;;;;;;5014377;28;20703;-79
2021/05/27 02:22:11;;;;;;;7.72;7.13;;;9.60;1.00;;;;;;5011216;28;20221;-78
2021/05/27 02:24:37;;;;;;;7.57;6.88;;;9.60;1.00;;;;;;5014997;28;20242;-80
2021/05/27 02:27:04;;;;;;;8.25;7.45;;;9.60;1.00;;;;;;5017807;28;20250;-78
2021/05/27 02:29:30;;;;;;;8.00;7.38;;;9.60;1.00;;;;;;5019563;28;20255;-79
2021/05/27 02:31:57;;;;;;;9.13;8.23;;;9.60;1.00;;;;;;5017738;28;20317;-79
2021/05/27 02:34:23;;;;;;;7.13;6.50;;;9.60;1.00;;;;;;5023147;28;20288;-77
2021/05/27 02:36:49;;;;;;;8.05;7.35;;;9.60;1.00;;;;;;5021494;28;20461;-78
2021/05/27 02:39:16;;;;;;;8.18;7.57;;;9.60;1.00;;;;;;5018760;28;23780;-79
2021/05/27 02:41:42;;;;;;;7.70;7.00;;;9.60;1.00;;;;;;5002762;28;20232;-78
2021/05/27 02:44:09;;;;;;;7.30;6.60;;;9.60;1.00;;;;;;5021712;28;20235;-78
2021/05/27 02:46:35;;;;;;;11.13;7.68;;;9.70;1.00;;;;;;5019303;28;20225;-79
2021/05/27 02:49:03;;;;;;;8.55;6.93;;;9.60;1.00;;;;;;5013221;28;20223;-79
2021/05/27 02:51:29;;;;;;;8.70;7.80;;;9.70;1.00;;;;;;5008176;28;20225;-79
2021/05/27 02:53:55;;;;;;;8.50;7.85;;;9.70;1.00;;;;;;5011880;28;20228;-79
2021/05/27 02:56:21;;;;;;;7.55;6.95;;;9.70;1.00;;;;;;5029517;28;20241;-79
2021/05/27 02:58:48;;;;;;;8.40;7.68;;;9.70;1.00;;;;;;5018210;28;20246;-79
2021/05/27 03:01:15;;;;;;;7.40;6.80;;;9.70;1.00;;;;;;5021986;28;20234;-77
2021/05/27 03:03:41;;;;;;;7.53;6.90;;;9.70;1.00;;;;;;5016732;28;20227;-78
2021/05/27 03:06:08;;;;;;;8.93;8.02;;;9.80;1.00;;;;;;5009134;28;21983;-79
2021/05/27 03:08:36;;;;;;;8.13;7.40;;;9.80;1.00;;;;;;5014509;28;20232;-78
2021/05/27 03:11:03;;;;;;;7.73;6.80;;;9.80;1.00;;;;;;5009814;28;20236;-78
2021/05/27 03:13:30;;;;;;;7.40;6.80;;;9.90;1.00;;;;;;4995463;28;20441;-78
2021/05/27 03:15:56;;;;;;;7.75;7.05;;;9.90;1.00;;;;;;5019883;28;20522;-78
2021/05/27 03:18:22;;;;;;;7.50;6.80;;;9.90;1.00;;;;;;5017684;28;20225;-78
2021/05/27 03:20:48;;;;;;;7.93;7.32;;;9.90;1.00;;;;;;5015277;28;20230;-78
2021/05/27 03:23:15;;;;;;;7.15;6.65;;;9.90;1.00;;;;;;5009044;28;21245;-78
2021/05/27 03:25:42;;;;;;;7.03;6.53;;;9.90;1.00;;;;;;5000037;28;20251;-79
2021/05/27 03:28:08;;;;;;;8.07;7.38;;;10.00;1.00;;;;;;5018531;28;22362;-79
2021/05/27 03:30:34;;;;;;;12.07;10.95;;;9.90;1.00;;;;;;5019655;28;20229;-78
2021/05/27 03:33:00;;;;;;;7.70;7.00;;;9.90;1.00;;;;;;5020816;28;20302;-79
2021/05/27 03:35:27;;;;;;;7.78;7.07;;;10.00;1.00;;;;;;5024533;28;20216;-78
2021/05/27 03:37:53;;;;;;;7.28;6.72;;;10.00;1.00;;;;;;5020134;28;20849;-79
2021/05/27 03:40:21;;;;;;;7.47;6.88;;;10.00;1.00;;;;;;5015407;28;20247;-79
2021/05/27 03:42:49;;;;;;;9.73;7.97;;;10.00;1.00;;;;;;5006796;28;20331;-78
2021/05/27 03:45:17;;;;;;;8.02;7.18;;;10.00;1.00;;;;;;5011523;28;21049;-78
2021/05/27 03:47:44;;;;;;;7.95;7.25;;;10.10;1.00;;;;;;5019138;28;20215;-78
2021/05/27 03:50:12;;;;;;;8.32;7.53;;;10.10;1.00;;;;;;5017104;28;20226;-79
2021/05/27 03:52:39;;;;;;;8.40;7.70;;;10.10;1.00;;;;;;4995926;28;20220;-79
2021/05/27 03:55:07;;;;;;;7.53;6.93;;;10.10;1.00;;;;;;5013901;28;20584;-79
2021/05/27 03:57:34;;;;;;;9.10;8.30;;;10.10;1.00;;;;;;5019989;28;20224;-79
2021/05/27 04:02:46;;;;;;;7.97;7.32;;;10.20;1.00;;;;;;5032216;28;20235;-78
2021/05/27 04:07:59;;;;;;;8.80;8.00;;;10.20;1.00;;;;;;5018439;28;20250;-80
2021/05/27 04:10:26;;;;;;;8.35;7.65;;;10.20;1.00;;;;;;5017769;28;20214;-80
2021/05/27 04:12:53;;;;;;;10.70;9.67;;;10.30;1.00;;;;;;5017027;28;20290;-80
2021/05/27 04:15:23;;;;;;;8.27;7.47;;;10.30;1.00;;;;;;5016687;28;20607;-80
2021/05/27 04:17:54;;;;;;;8.93;8.23;;;10.30;1.00;;;;;;5017965;28;21587;-80
2021/05/27 04:20:20;;;;;;;8.77;7.95;;;10.40;1.00;;;;;;5017038;28;20326;-80
2021/05/27 04:22:47;;;;;;;7.78;7.05;;;10.50;1.00;;;;;;5017689;28;20226;-79
2021/05/27 04:25:15;;;;;;;8.82;7.95;;;10.50;1.00;;;;;;5020297;28;20305;-81
2021/05/27 04:27:42;;;;;;;8.10;7.30;;;10.50;1.00;;;;;;5025240;28;20306;-79
2021/05/27 04:30:15;;;;;;;7.82;7.22;;;10.60;1.00;;;;;;5033993;28;20269;-80
2021/05/27 04:32:56;;;;;;;6.93;6.33;;;10.60;1.00;;;;;;5030250;28;20227;-79
2021/05/27 04:35:28;;;;;;;8.55;7.75;;;10.70;1.00;;;;;;5034291;28;20459;-79
2021/05/27 04:37:56;;;;;;;8.23;7.53;;;10.70;1.00;;;;;;5024068;28;21110;-80
2021/05/27 04:40:23;;;;;;;8.70;7.80;;;10.70;1.00;;;;;;5031448;28;20211;-79
2021/05/27 04:42:50;;;;;;;7.10;6.50;;;10.70;1.00;;;;;;5026281;28;20895;-79
2021/05/27 04:45:17;;;;;;;8.55;7.75;;;10.80;1.00;;;;;;5032870;28;20676;-78
2021/05/27 04:47:44;;;;;;;8.93;7.95;;;10.80;1.00;;;;;;5031394;28;20319;-79
2021/05/27 04:50:12;;;;;;;9.07;8.18;;;10.80;1.00;;;;;;5034262;28;20386;-79
2021/05/27 04:52:38;;;;;;;7.43;6.83;;;10.90;1.00;;;;;;5037635;28;20235;-78
2021/05/27 04:55:06;;;;;;;8.20;7.40;;;10.90;1.00;;;;;;5039810;28;20428;-78
2021/05/27 04:57:33;;;;;;;7.25;6.65;;;10.90;1.00;;;;;;5037569;28;20229;-79
2021/05/27 04:59:59;;;;;;;7.70;7.10;;;11.00;1.00;;;;;;5035197;28;20711;-78
2021/05/27 05:02:26;;;;;;;7.68;7.07;;;11.10;1.00;;;;;;5037332;28;20231;-80
2021/05/27 05:04:53;;;;;;;7.75;7.05;;;11.20;1.00;;;;;;5043044;28;20342;-77
2021/05/27 05:07:19;;;;;;;8.35;7.65;;;11.30;1.00;;;;;;5037263;28;20265;-78
2021/05/27 05:09:45;;;;;;;8.00;7.30;;;11.30;1.00;;;;;;5037495;28;20879;-79
2021/05/27 05:12:12;;;;;;;8.37;7.60;;;11.40;1.00;;;;;;5036674;28;20333;-78
2021/05/27 05:14:38;;;;;;;8.10;7.33;;;11.40;1.00;;;;;;5013198;28;20488;-78
2021/05/27 05:17:05;;;;;;;7.57;6.97;;;11.40;1.00;;;;;;5030202;28;20525;-76
2021/05/27 05:19:33;;;;;;;10.33;7.80;;;11.50;1.00;;;;;;5028715;28;20484;-78
2021/05/27 05:21:59;;;;;;;8.10;7.40;;;11.60;1.00;;;;;;5012724;28;20449;-78
2021/05/27 05:24:26;;;;;;;8.47;7.67;;;11.70;1.00;;;;;;5030667;28;20498;-77
2021/05/27 05:26:52;;;;;;;7.60;6.90;;;11.90;1.00;;;;;;5032171;28;20437;-78
2021/05/27 05:29:19;;;;;;;8.20;7.40;;;12.10;1.00;;;;;;5025463;28;20470;-79
2021/05/27 05:31:45;;;;;;;7.47;6.80;;;12.20;1.00;;;;;;5030103;28;21373;-78
2021/05/27 05:34:12;;;;;;;8.20;7.60;;;12.30;1.00;;;;;;5029245;28;20496;-78
2021/05/27 05:36:39;;;;;;;8.83;7.93;;;12.30;1.00;;;;;;5008358;28;20458;-77
2021/05/27 05:39:06;;;;;;;7.37;6.80;;;12.20;1.00;;;;;;5029717;28;22250;-79
2021/05/27 05:41:32;;;;;;;9.80;7.40;;;12.30;1.00;;;;;;5024722;28;20458;-79
2021/05/27 05:43:59;;;;;;;7.50;6.90;;;12.20;1.00;;;;;;5026706;28;20548;-80
2021/05/27 05:46:26;;;;;;;7.23;6.53;;;12.10;1.00;;;;;;5017029;28;20442;-82
2021/05/27 05:48:52;;;;;;;7.27;6.67;;;12.10;1.00;;;;;;5011856;28;20447;-78
2021/05/27 05:51:18;;;;;;;7.47;6.53;;;12.20;1.00;;;;;;5014355;28;20450;-78
2021/05/27 05:53:46;;;;;;;7.93;7.23;;;12.30;1.00;;;;;;5017134;28;21029;-77
2021/05/27 05:56:12;;;;;;;7.20;6.60;;;12.40;1.00;;;;;;5016621;28;20461;-78
2021/05/27 05:58:38;;;;;;;7.47;6.77;;;12.60;1.00;;;;;;5011761;28;21630;-78
2021/05/27 06:01:05;;;;;;;7.63;7.03;;;12.70;1.00;;;;;;5013605;28;20501;-77
2021/05/27 06:03:32;;;;;;;8.40;7.60;;;12.70;1.00;;;;;;5034691;28;20489;-77
2021/05/27 06:05:58;;;;;;;6.97;6.40;;;12.70;1.00;;;;;;5022487;28;20410;-76
2021/05/27 06:08:25;;;;;;;6.87;6.27;;;12.80;1.00;;;;;;5021509;28;20591;-78
2021/05/27 06:10:52;;;;;;;6.43;5.83;;;12.80;1.00;;;;;;5020404;28;20473;-79
2021/05/27 06:13:18;;;;;;;7.10;6.50;;;12.80;1.00;;;;;;5031074;28;20911;-79
2021/05/27 06:15:45;;;;;;;6.50;5.27;;;12.80;1.00;;;;;;5025608;28;20429;-80
2021/05/27 06:18:11;;;;;;;6.73;6.23;;;12.90;1.00;;;;;;5027796;28;20441;-80
2021/05/27 06:20:38;;;;;;;6.60;6.00;;;13.00;1.00;;;;;;5006477;28;23198;-80
2021/05/27 06:23:05;;;;;;;7.60;6.90;;;13.00;1.00;;;;;;5006627;28;20485;-79
2021/05/27 06:25:32;;;;;;;7.53;5.87;;;13.10;1.00;;;;;;5024681;28;20490;-79
2021/05/27 06:27:59;;;;;;;7.07;5.40;;;13.20;1.00;;;;;;5030054;28;20473;-79
2021/05/27 06:30:28;;;;;;;6.60;5.97;;;13.20;1.00;;;;;;5025256;28;20402;-79
2021/05/27 06:32:55;;;;;;;6.47;5.20;;;13.20;1.00;;;;;;5024052;28;20737;-78
2021/05/27 06:35:22;;;;;;;7.10;6.00;;;13.10;1.00;;;;;;5025459;28;21258;-79
2021/05/27 06:37:49;;;;;;;8.73;5.80;;;13.10;1.00;;;;;;5003522;28;20410;-80
2021/05/27 06:40:17;;;;;;;6.80;6.13;;;13.00;1.00;;;;;;5029104;28;20509;-79
2021/05/27 06:42:44;;;;;;;6.97;6.27;;;13.00;1.00;;;;;;5039046;28;20452;-76
2021/05/27 06:45:13;;;;;;;6.63;6.03;;;13.10;1.00;;;;;;5039789;28;20433;-77
2021/05/27 06:47:40;;;;;;;7.33;6.60;;;13.00;1.00;;;;;;5040731;28;20414;-78
2021/05/27 06:50:33;;;;;;;7.80;6.27;;;13.00;1.00;;;;;;5023008;28;20410;-78
2021/05/27 06:53:01;;;;;;;7.50;6.37;;;12.90;1.00;;;;;;5038255;28;20437;-77
2021/05/27 06:55:28;;;;;;;6.57;5.97;;;12.90;1.00;;;;;;5017204;28;20647;-77
2021/05/27 06:57:54;;;;;;;6.40;5.77;;;13.00;1.00;;;;;;5031089;28;20450;-78
2021/05/27 07:00:22;;;;;;;6.47;5.87;;;12.90;1.00;;;;;;5025950;28;20461;-77
2021/05/27 07:02:50;;;;;;;6.40;5.90;;;12.90;1.00;;;;;;5028508;28;20457;-79
2021/05/27 07:05:17;;;;;;;6.27;5.77;;;12.90;1.00;;;;;;5030098;28;20578;-78
2021/05/27 07:07:43;;;;;;;6.27;5.77;;;12.80;1.00;;;;;;5027306;28;20419;-78
2021/05/27 07:10:11;;;;;;;6.13;5.63;;;12.90;1.00;;;;;;5009127;28;20458;-77
2021/05/27 07:12:37;;;;;;;6.10;5.57;;;12.90;1.00;;;;;;5025966;28;20576;-79
2021/05/27 07:15:05;;;;;;;5.87;5.37;;;13.00;1.00;;;;;;5032414;28;20452;-78
2021/05/27 07:17:32;;;;;;;5.37;4.97;;;13.00;1.00;;;;;;5027766;28;20646;-77
2021/05/27 07:19:58;;;;;;;6.37;5.77;;;13.00;1.00;;;;;;5024990;28;20418;-78
2021/05/27 07:22:25;;;;;;;6.17;5.57;;;12.90;1.00;;;;;;5030486;28;20473;-79
2021/05/27 07:24:51;;;;;;;4.93;4.50;;;12.90;1.00;;;;;;5031588;28;20473;-79
2021/05/27 07:27:17;;;;;;;5.53;5.03;;;13.00;1.00;;;;;;5029321;28;20434;-78
2021/05/27 07:29:47;;;;;;;5.60;5.20;;;13.00;1.00;;;;;;5014652;28;20484;-77
2021/05/27 07:32:14;;;;;;;5.80;5.30;;;12.80;1.00;;;;;;5000748;28;20442;-80
2021/05/27 07:34:43;;;;;;;6.83;5.20;;;12.50;1.00;;;;;;5017707;28;20410;-78
2021/05/27 07:37:10;;;;;;;6.60;6.10;;;12.40;1.00;;;;;;5028430;28;20411;-77
2021/05/27 07:39:36;;;;;;;6.10;5.30;;;12.20;1.00;;;;;;5026677;28;22041;-79
2021/05/27 07:42:06;;;;;;;5.87;5.37;;;12.20;1.00;;;;;;5011835;28;20501;-79
2021/05/27 07:44:32;;;;;;;5.40;4.90;;;12.30;1.00;;;;;;5021199;28;20457;-79
2021/05/27 07:46:58;;;;;;;5.07;4.57;;;12.50;1.00;;;;;;5022799;28;20434;-79
2021/05/27 07:49:25;;;;;;;6.37;4.77;;;12.80;1.00;;;;;;5021607;28;20398;-79
2021/05/27 07:51:52;;;;;;;4.23;3.93;;;13.10;1.00;;;;;;5023163;28;20456;-79
2021/05/27 07:54:18;;;;;;;4.27;3.97;;;13.40;1.00;;;;;;5022571;28;20429;-81
2021/05/27 07:56:44;;;;;;;4.30;4.00;;;13.40;1.00;;;;;;5026359;28;20421;-80
2021/05/27 07:59:11;;;;;;;3.93;3.53;;;13.50;1.00;;;;;;5023924;28;20398;-79
2021/05/27 08:01:39;;;;;;;4.00;3.70;;;13.60;1.00;;;;;;5028217;28;20476;-79
2021/05/27 08:04:05;;;;;;;4.63;4.27;;;13.80;1.00;;;;;;5025005;28;20450;-80
2021/05/27 08:06:34;;;;;;;5.67;4.10;;;13.90;1.00;;;;;;5020459;28;20477;-78
2021/05/27 08:09:03;;;;;;;3.90;3.23;;;14.10;1.00;;;;;;5028460;28;20454;-78
2021/05/27 08:11:29;;;;;;;4.53;4.20;;;14.10;1.00;;;;;;5028449;28;21419;-78
2021/05/27 08:13:55;;;;;;;4.00;3.70;;;13.90;1.00;;;;;;5031873;28;20465;-79
2021/05/27 08:16:21;;;;;;;2.90;2.70;;;13.90;1.00;;;;;;5029698;28;21048;-80
2021/05/27 08:18:48;;;;;;;3.70;3.40;;;13.90;1.00;;;;;;5012250;28;20413;-78
2021/05/27 08:21:14;;;;;;;3.87;3.63;;;13.90;1.00;;;;;;5017959;28;20381;-79
2021/05/27 08:23:41;;;;;;;4.90;4.50;;;14.00;1.00;;;;;;5017395;28;21247;-78
2021/05/27 08:26:08;;;;;;;3.30;3.00;;;14.10;1.00;;;;;;5028205;28;20473;-79
2021/05/27 08:28:35;;;;;;;4.73;3.50;;;14.20;1.00;;;;;;5022199;28;20402;-79
2021/05/27 08:31:01;;;;;;;3.70;3.40;;;14.30;1.00;;;;;;5021759;28;20539;-79
2021/05/27 08:33:32;;;;;;;5.03;3.00;;;14.30;1.00;;;;;;5010685;28;20222;-80
2021/05/27 08:35:58;;;;;;;6.20;5.70;;;14.20;1.00;;;;;;5013287;28;22312;-78
2021/05/27 08:38:25;;;;;;;5.27;4.40;;;14.10;1.00;;;;;;5018514;28;20434;-79
2021/05/27 08:40:55;;;;;;;4.53;4.23;;;14.10;1.00;;;;;;5015186;28;20543;-77
2021/05/27 08:43:22;;;;;;;4.30;4.00;;;13.90;1.00;;;;;;5014165;28;21080;-79
2021/05/27 08:45:58;;;;;;;4.80;4.00;;;14.00;1.00;;;;;;5031839;28;20427;-79
2021/05/27 08:48:24;;;;;;;4.10;3.70;;;14.20;1.00;;;;;;5028211;28;20441;-80
2021/05/27 08:50:52;;;;;;;3.47;3.17;;;14.50;1.00;;;;;;5030827;28;20449;-80
2021/05/27 08:53:20;;;;;;;2.77;2.57;;;14.60;1.00;;;;;;4999170;28;20433;-80
2021/05/27 08:55:55;;;;;;;4.10;2.60;;;14.70;1.00;;;;;;5028762;28;20422;-80
2021/05/27 08:58:22;;;;;;;4.33;2.80;;;14.80;1.00;;;;;;5020882;28;20457;-81
2021/05/27 09:00:49;;;;;;;2.47;2.30;;;14.70;1.00;;;;;;5000543;28;20481;-79
2021/05/27 09:03:17;;;;;;;3.77;3.00;;;14.70;1.00;;;;;;5012132;28;20454;-81
2021/05/27 09:06:11;;;;;;;2.73;2.57;;;14.70;1.00;;;;;;5019204;28;20497;-82
2021/05/27 09:08:40;;;;;;;3.27;2.97;;;14.70;1.00;;;;;;5019806;28;20468;-79
2021/05/27 09:11:08;;;;;;;4.00;2.60;;;14.60;1.00;;;;;;5010299;28;20489;-79
2021/05/27 09:13:34;;;;;;;3.00;2.80;;;14.30;1.00;;;;;;5011080;28;20458;-76
2021/05/27 09:16:09;;;;;;;2.90;2.60;;;14.10;1.00;;;;;;5019542;28;20441;-78
2021/05/27 09:18:39;;;;;;;2.90;2.70;;;14.00;1.00;;;;;;5033068;28;20451;-78
2021/05/27 09:21:22;;;;;;;2.93;2.70;;;14.00;1.00;;;;;;5041387;28;20462;-78
2021/05/27 09:23:54;;;;;;;3.83;3.40;;;13.90;1.00;;;;;;5028799;28;20503;-76
2021/05/27 09:26:20;;;;;;;4.70;3.30;;;13.90;1.00;;;;;;5025372;28;20449;-80
2021/05/27 09:28:48;;;;;;;2.93;2.73;;;13.90;1.00;;;;;;5017249;28;20565;-78
2021/05/27 09:31:17;;;;;;;3.00;2.80;;;13.90;1.00;;;;;;5010508;28;20496;-80
2021/05/27 09:33:44;;;;;;;2.47;2.27;;;14.10;1.00;;;;;;5022757;28;20536;-80
2021/05/27 09:36:12;;;;;;;2.40;2.20;;;14.30;1.00;;;;;;5025119;28;20505;-82
2021/05/27 09:38:41;;;;;;;1.90;1.80;;;14.60;1.00;;;;;;5018086;28;20560;-81
2021/05/27 09:41:19;;;;;;;3.27;2.07;;;14.60;1.00;;;;;;5022485;28;20460;-80
2021/05/27 09:43:49;;;;;;;1.60;1.50;;;14.70;1.00;;;;;;5020329;28;20473;-80
2021/05/27 09:46:15;;;;;;;1.30;1.20;;;14.90;1.00;;;;;;5028079;28;20486;-80
2021/05/27 09:48:44;;;;;;;2.90;2.00;;;15.20;1.00;;;;;;5011561;28;20528;-78
2021/05/27 09:51:11;;;;;;;2.53;1.57;;;15.50;1.00;;;;;;5012444;28;20457;-78
2021/05/27 09:53:38;;;;;;;3.00;1.40;;;16.00;1.00;;;;;;5016546;28;20415;-78
2021/05/27 09:56:06;;;;;;;1.57;1.30;;;16.40;1.00;;;;;;5017076;28;20628;-78
2021/05/27 09:58:33;;;;;;;0.97;0.87;;;16.60;1.00;;;;;;5016251;28;20542;-76
2021/05/27 10:01:08;;;;;;;1.00;0.90;;;16.80;1.00;;;;;;5020016;28;20460;-78
2021/05/27 10:03:36;;;;;;;3.40;1.07;;;16.90;1.00;;;;;;5020667;28;20466;-76
2021/05/27 10:06:06;;;;;;;1.33;1.00;;;17.00;1.00;;;;;;5018210;28;20423;-77
2021/05/27 10:08:51;;;;;;;1.63;0.90;;;17.30;1.00;;;;;;5021376;28;20454;-78
2021/05/27 10:11:18;;;;;;;1.20;1.10;;;18.10;1.00;;;;;;5024393;28;20575;-78
2021/05/27 10:13:45;;;;;;;1.30;1.00;;;18.40;1.00;;;;;;5028363;28;20402;-77
2021/05/27 10:16:13;;;;;;;3.50;1.50;;;18.50;1.00;;;;;;5018666;28;20475;-76
2021/05/27 10:18:40;;;;;;;1.47;1.37;;;19.90;1.00;;;;;;5024359;28;20553;-77
2021/05/27 10:21:06;;;;;;;1.90;1.50;;;20.90;1.00;;;;;;5034381;28;20478;-75
2021/05/27 10:23:33;;;;;;;1.80;1.70;;;21.60;1.00;;;;;;5036726;28;20419;-78
2021/05/27 10:25:59;;;;;;;3.10;1.80;;;22.30;1.00;;;;;;5021872;28;20461;-79
2021/05/27 10:28:26;;;;;;;1.40;1.30;;;23.30;1.00;;;;;;5021209;28;20512;-75
2021/05/27 10:30:56;;;;;;;1.30;1.20;;;23.80;1.00;;;;;;5021363;28;20597;-78
2021/05/27 10:33:24;;;;;;;1.23;1.03;;;23.70;1.00;;;;;;5008434;28;20434;-76
2021/05/27 10:35:57;;;;;;;3.57;1.40;;;22.80;1.00;;;;;;5015634;28;20516;-78
2021/05/27 10:38:48;;;;;;;2.40;2.17;;;22.20;1.00;;;;;;5023508;28;21107;-76
2021/05/27 10:41:17;;;;;;;1.73;1.50;;;22.80;1.00;;;;;;5021511;28;20500;-79
2021/05/27 10:44:08;;;;;;;1.70;1.50;;;22.90;1.00;;;;;;5023929;28;20463;-79
2021/05/27 10:47:12;;;;;;;1.13;1.03;;;22.00;1.00;;;;;;4995679;28;20451;-79
2021/05/27 10:50:02;;;;;;;2.10;1.33;;;21.00;1.00;;;;;;5016303;28;21306;-80
2021/05/27 10:52:43;;;;;;;1.80;1.60;;;20.10;1.00;;;;;;5002977;28;20473;-79
2021/05/27 10:55:55;;;;;;;3.10;2.30;;;19.60;1.00;;;;;;5001411;28;20452;-81
2021/05/27 10:59:09;;;;;;;9.20;8.43;;;19.10;1.00;;;;;;5017933;28;20713;-77
2021/05/27 11:01:56;;;;;;;1.67;1.50;;;18.60;1.00;;;;;;5005617;28;20429;-76
2021/05/27 11:04:26;;;;;;;2.57;1.47;;;18.20;1.00;;;;;;5022874;28;20849;-76
2021/05/27 11:07:21;;;;;;;1.27;1.17;;;18.50;1.00;;;;;;5027037;28;20445;-75
2021/05/27 11:09:48;;;;;;;2.20;1.50;;;18.60;1.00;;;;;;5035016;28;20436;-75
2021/05/27 11:12:20;;;;;;;1.60;1.40;;;18.50;1.00;;;;;;5026156;28;20452;-75
2021/05/27 11:15:03;;;;;;;2.60;1.50;;;18.10;1.00;;;;;;5024748;28;20617;-81
2021/05/27 11:17:30;;;;;;;1.90;1.70;;;17.30;1.00;;;;;;5024548;28;20975;-75
2021/05/27 11:20:01;;;;;;;1.37;1.27;;;16.30;1.00;;;;;;5029747;28;20462;-76
2021/05/27 11:22:44;;;;;;;1.73;1.60;;;15.70;1.00;;;;;;5029458;28;20430;-76
2021/05/27 11:25:29;;;;;;;2.13;1.97;;;15.50;1.00;;;;;;5032000;28;20433;-75
2021/05/27 11:27:57;;;;;;;1.60;1.50;;;15.40;1.00;;;;;;5025966;28;20406;-77
2021/05/27 11:30:25;;;;;;;4.17;1.93;;;15.30;1.00;;;;;;5029458;28;20500;-76
2021/05/27 11:33:02;;;;;;;5.43;3.83;;;15.30;1.00;;;;;;5025786;28;20494;-81
2021/05/27 11:35:31;;;;;;;3.70;1.50;;;15.20;1.00;;;;;;5028812;28;20454;-78
2021/05/27 11:37:58;;;;;;;3.20;2.00;;;15.00;1.00;;;;;;5025982;28;20418;-77
2021/05/27 11:40:30;;;;;;;2.83;2.27;;;14.90;1.00;;;;;;5027466;28;20517;-78
2021/05/27 11:42:56;;;;;;;1.30;1.20;;;14.80;1.00;;;;;;5020340;28;20453;-78
2021/05/27 11:45:26;;;;;;;1.40;1.30;;;14.70;1.00;;;;;;5022005;28;20481;-79
2021/05/27 11:48:16;;;;;;;0.97;0.87;;;15.70;1.00;;;;;;5019527;28;20582;-78
2021/05/27 11:50:42;;;;;;;1.53;1.10;;;18.10;1.00;;;;;;5011964;28;23460;-76
2021/05/27 11:53:09;;;;;;;3.43;1.10;;;20.50;1.00;;;;;;5015258;28;20438;-79
2021/05/27 11:55:35;;;;;;;1.67;1.57;;;22.30;1.00;;;;;;5012809;28;20649;-76
2021/05/27 11:58:03;;;;;;;1.70;1.17;;;22.40;1.00;;;;;;5015068;28;20455;-78
2021/05/27 12:00:29;;;;;;;6.87;2.53;;;21.90;1.00;;;;;;4986346;28;20575;-78
2021/05/27 12:02:59;;;;;;;4.33;1.90;;;21.20;1.00;;;;;;5012580;28;20654;-79
2021/05/27 12:05:27;;;;;;;1.17;1.03;;;20.40;1.00;;;;;;4988324;28;20453;-79
2021/05/27 12:07:58;;;;;;;1.20;1.10;;;19.50;1.00;;;;;;5007974;28;20440;-79
2021/05/27 12:10:26;;;;;;;1.60;1.50;;;18.70;1.00;;;;;;5011398;28;20460;-78
2021/05/27 12:12:52;;;;;;;2.10;0.73;;;17.80;1.00;;;;;;5004749;28;20517;-78
2021/05/27 12:15:21;;;;;;;1.77;0.80;;;16.60;1.00;;;;;;5007734;28;20512;-76
2021/05/27 12:17:48;;;;;;;1.10;0.90;;;15.50;1.00;;;;;;5019777;28;20449;-75
2021/05/27 12:20:17;;;;;;;1.13;0.90;;;14.70;1.00;;;;;;5013229;28;20532;-78
2021/05/27 12:23:04;;;;;;;1.20;1.00;;;14.20;1.00;;;;;;5021567;28;20918;-78
2021/05/27 12:25:33;;;;;;;1.30;1.20;;;13.90;1.00;;;;;;5029074;28;20425;-80
2021/05/27 12:28:01;;;;;;;1.70;0.90;;;13.70;1.00;;;;;;5022321;28;20569;-79
2021/05/27 12:30:30;;;;;;;1.77;1.30;;;14.20;1.00;;;;;;5019831;28;20541;-78
2021/05/27 12:32:57;;;;;;;1.27;0.80;;;15.80;1.00;;;;;;5027416;28;20448;-80
2021/05/27 12:35:26;;;;;;;1.00;0.80;;;18.10;1.00;;;;;;5022153;28;20450;-79
2021/05/27 12:37:57;;;;;;;1.40;0.70;;;20.40;1.00;;;;;;5019423;28;20484;-78
2021/05/27 12:40:27;;;;;;;1.47;0.83;;;22.40;1.00;;;;;;5015897;28;20503;-80
2021/05/27 12:42:56;;;;;;;1.50;1.23;;;24.10;1.00;;;;;;4999508;28;20456;-82
2021/05/27 12:45:30;;;;;;;1.20;0.90;;;25.10;1.00;;;;;;5021848;28;20466;-80
2021/05/27 12:48:13;;;;;;;0.80;0.63;;;25.80;1.00;;;;;;5016055;28;20443;-82
2021/05/27 12:50:43;;;;;;;0.80;0.70;;;26.60;1.00;;;;;;5018675;28;20521;-79
2021/05/27 12:53:24;;;;;;;0.70;0.57;;;27.20;1.00;;;;;;5021818;28;20421;-78
2021/05/27 12:55:52;;;;;;;0.90;0.77;;;27.90;1.00;;;;;;5006209;28;24073;-80
2021/05/27 12:58:32;;;;;;;0.80;0.60;;;28.00;1.00;;;;;;5025254;28;20450;-80
2021/05/27 13:01:00;;;;;;;3.03;1.00;;;28.20;1.00;;;;;;5003292;28;20567;-79
2021/05/27 13:03:29;;;;;;;1.53;0.80;;;29.10;1.00;;;;;;5021248;28;21909;-80
2021/05/27 13:06:09;;;;;;;1.53;0.70;;;29.70;1.00;;;;;;5019882;28;22056;-79
2021/05/27 13:08:39;;;;;;;0.70;0.53;;;28.60;1.00;;;;;;5018581;28;20454;-77
2021/05/27 13:11:21;;;;;;;2.40;1.30;;;25.80;1.00;;;;;;5010044;28;20488;-77
2021/05/27 13:13:48;;;;;;;1.00;0.63;;;23.60;1.00;;;;;;5015678;28;20454;-78